createdAt,value
2018-05-06T00:00:40.568Z,101642
2018-05-06T00:03:08.793Z,101650
2018-05-06T00:05:37.596Z,101645
2018-05-06T00:08:06.412Z,101655
2018-05-06T00:10:36.172Z,101637
2018-05-06T00:13:05.236Z,101644
2018-05-06T00:15:34.195Z,101637
2018-05-06T00:18:02.267Z,101641
2018-05-06T00:20:30.373Z,101634
2018-05-06T00:23:00.160Z,101634
2018-05-06T00:25:28.493Z,101632
2018-05-06T00:27:56.578Z,101635
2018-05-06T00:30:25.400Z,101632
2018-05-06T00:32:54.265Z,101628
2018-05-06T00:35:22.340Z,101637
2018-05-06T00:37:50.642Z,101625
2018-05-06T00:40:19.525Z,101625
2018-05-06T00:42:47.761Z,101627
2018-05-06T00:45:17.413Z,101624
2018-05-06T00:47:45.493Z,101625
2018-05-06T00:50:13.797Z,101621
2018-05-06T00:52:42.641Z,101620
2018-05-06T00:55:11.713Z,101617
2018-05-06T00:57:40.529Z,101613
2018-05-06T01:00:08.598Z,101614
2018-05-06T01:02:37.496Z,101623
2018-05-06T01:05:05.807Z,101623
2018-05-06T01:07:33.908Z,101635
2018-05-06T01:10:02.673Z,101629
2018-05-06T01:12:31.081Z,101628
2018-05-06T01:14:59.910Z,101628
2018-05-06T01:17:28.048Z,101627
2018-05-06T01:19:56.132Z,101620
2018-05-06T01:22:24.247Z,101625
2018-05-06T01:24:52.424Z,101623
2018-05-06T01:27:20.524Z,101627
2018-05-06T01:29:49.395Z,101628
2018-05-06T01:32:17.485Z,101639
2018-05-06T01:34:46.564Z,101630
2018-05-06T01:37:14.872Z,101628
2018-05-06T01:39:43.199Z,101629
2018-05-06T01:42:11.291Z,101624
2018-05-06T01:44:39.437Z,101624
2018-05-06T01:47:08.228Z,101622
2018-05-06T01:49:36.571Z,101613
2018-05-06T01:52:04.666Z,101609
2018-05-06T01:54:33.503Z,101620
2018-05-06T01:57:03.165Z,101613
2018-05-06T01:59:31.560Z,101623
2018-05-06T02:02:00.540Z,101620
2018-05-06T02:04:28.929Z,101620
2018-05-06T02:06:57.232Z,101630
2018-05-06T02:09:25.820Z,101628
2018-05-06T02:11:53.936Z,101624
2018-05-06T02:14:22.293Z,101623
2018-05-06T02:16:50.599Z,101632
2018-05-06T02:19:18.932Z,101622
2018-05-06T02:21:47.828Z,101629
2018-05-06T02:24:17.399Z,101609
2018-05-06T02:26:46.353Z,101622
2018-05-06T02:29:14.548Z,101613
2018-05-06T02:31:43.416Z,101627
2018-05-06T02:34:11.515Z,101618
2018-05-06T02:36:39.592Z,101622
2018-05-06T02:39:08.382Z,101612
2018-05-06T02:41:37.425Z,101620
2018-05-06T02:44:06.330Z,101609
2018-05-06T02:46:35.148Z,101600
2018-05-06T02:49:04.397Z,101609
2018-05-06T02:51:34.430Z,101603
2018-05-06T02:54:05.912Z,101606
2018-05-06T02:56:34.268Z,101598
2018-05-06T02:59:02.353Z,101600
2018-05-06T03:01:30.845Z,101603
2018-05-06T03:04:00.577Z,101599
2018-05-06T03:06:28.691Z,101600
2018-05-06T03:08:56.781Z,101596
2018-05-06T03:11:25.112Z,101603
2018-05-06T03:13:53.409Z,101622
2018-05-06T03:16:22.240Z,101608
2018-05-06T03:18:50.346Z,101617
2018-05-06T03:21:19.105Z,101615
2018-05-06T03:23:47.908Z,101615
2018-05-06T03:26:15.979Z,101606
2018-05-06T03:28:44.931Z,101608
2018-05-06T03:31:13.084Z,101612
2018-05-06T03:33:41.368Z,101615
2018-05-06T03:36:10.220Z,101615
2018-05-06T03:38:38.472Z,101609
2018-05-06T03:41:06.552Z,101613
2018-05-06T03:43:34.621Z,101608
2018-05-06T03:46:04.184Z,101608
2018-05-06T03:48:32.297Z,101620
2018-05-06T03:51:01.175Z,101612
2018-05-06T03:53:30.349Z,101608
2018-05-06T03:59:50.451Z,101620
2018-05-06T04:05:24.251Z,101628
2018-05-06T04:07:52.540Z,101621
2018-05-06T04:10:20.844Z,101626
2018-05-06T04:12:53.686Z,101620
2018-05-06T04:15:22.717Z,101626
2018-05-06T04:17:50.921Z,101619
2018-05-06T04:20:19.732Z,101619
2018-05-06T04:22:47.862Z,101620
2018-05-06T04:25:17.377Z,101626
2018-05-06T04:27:46.266Z,101612
2018-05-06T04:30:15.254Z,101614
2018-05-06T04:32:43.351Z,101619
2018-05-06T04:35:11.485Z,101624
2018-05-06T04:37:40.544Z,101621
2018-05-06T04:40:08.621Z,101632
2018-05-06T04:42:36.712Z,101625
2018-05-06T04:45:05.011Z,101623
2018-05-06T04:47:33.185Z,101627
2018-05-06T04:50:01.496Z,101631
2018-05-06T04:52:29.590Z,101627
2018-05-06T04:54:57.896Z,101630
2018-05-06T04:57:26.199Z,101633
2018-05-06T04:59:54.496Z,101632
2018-05-06T05:02:23.245Z,101636
2018-05-06T05:04:52.298Z,101631
2018-05-06T05:07:24.026Z,101634
2018-05-06T05:09:52.137Z,101634
2018-05-06T05:12:20.224Z,101639
2018-05-06T05:14:48.550Z,101635
2018-05-06T05:17:18.091Z,101633
2018-05-06T05:19:46.157Z,101632
2018-05-06T05:22:14.516Z,101633
2018-05-06T05:24:43.556Z,101630
2018-05-06T05:27:11.908Z,101629
2018-05-06T05:29:40.016Z,101627
2018-05-06T05:32:08.192Z,101637
2018-05-06T05:34:37.119Z,101615
2018-05-06T05:37:06.191Z,101628
2018-05-06T05:39:34.312Z,101629
2018-05-06T05:42:04.096Z,101636
2018-05-06T05:44:33.520Z,101632
2018-05-06T05:47:05.977Z,101631
2018-05-06T05:49:34.121Z,101638
2018-05-06T05:52:02.228Z,101642
2018-05-06T05:54:30.556Z,101635
2018-05-06T05:56:59.688Z,101636
2018-05-06T05:59:31.405Z,101638
2018-05-06T06:02:00.250Z,101644
2018-05-06T06:04:29.248Z,101641
2018-05-06T06:06:57.420Z,101642
2018-05-06T06:09:26.000Z,101642
2018-05-06T06:11:54.973Z,101652
2018-05-06T06:14:23.688Z,101643
2018-05-06T06:16:58.308Z,101651
2018-05-06T06:19:26.420Z,101651
2018-05-06T06:21:56.546Z,101651
2018-05-06T06:24:25.543Z,101650
2018-05-06T06:26:55.228Z,101645
2018-05-06T06:29:24.300Z,101643
2018-05-06T06:31:52.476Z,101641
2018-05-06T06:34:22.821Z,101647
2018-05-06T06:36:52.425Z,101656
2018-05-06T06:39:24.576Z,101648
2018-05-06T06:41:55.032Z,101641
2018-05-06T06:44:23.261Z,101654
2018-05-06T06:46:52.415Z,101653
2018-05-06T06:49:20.617Z,101647
2018-05-06T06:51:49.707Z,101642
2018-05-06T06:54:18.036Z,101654
2018-05-06T06:56:46.529Z,101655
2018-05-06T06:59:14.743Z,101653
2018-05-06T07:01:44.632Z,101656
2018-05-06T07:04:13.066Z,101660
2018-05-06T07:06:41.586Z,101657
2018-05-06T07:09:10.343Z,101655
2018-05-06T07:11:39.072Z,101664
2018-05-06T07:14:07.906Z,101667
2018-05-06T07:16:36.797Z,101661
2018-05-06T07:19:05.169Z,101663
2018-05-06T07:21:34.072Z,101665
2018-05-06T07:24:02.347Z,101674
2018-05-06T07:26:31.145Z,101665
2018-05-06T07:29:00.091Z,101665
2018-05-06T07:31:29.091Z,101658
2018-05-06T07:33:58.725Z,101662
2018-05-06T07:36:26.820Z,101665
2018-05-06T07:38:56.506Z,101664
2018-05-06T07:41:25.496Z,101654
2018-05-06T07:43:54.204Z,101656
2018-05-06T07:46:23.893Z,101658
2018-05-06T07:48:52.830Z,101655
2018-05-06T07:51:21.585Z,101660
2018-05-06T07:53:49.788Z,101655
2018-05-06T07:56:18.864Z,101652
2018-05-06T07:58:47.194Z,101663
2018-05-06T08:01:16.418Z,101647
2018-05-06T08:03:44.952Z,101651
2018-05-06T08:06:14.055Z,101660
2018-05-06T08:08:42.570Z,101663
2018-05-06T08:11:11.470Z,101659
2018-05-06T08:13:40.392Z,101666
2018-05-06T08:16:09.303Z,101673
2018-05-06T08:18:38.221Z,101666
2018-05-06T08:21:07.816Z,101667
2018-05-06T08:23:38.295Z,101661
2018-05-06T08:26:08.023Z,101662
2018-05-06T08:28:37.934Z,101656
2018-05-06T08:31:06.118Z,101659
2018-05-06T08:33:34.173Z,101658
2018-05-06T08:36:02.287Z,101659
2018-05-06T08:38:31.281Z,101658
2018-05-06T08:41:00.068Z,101656
2018-05-06T08:43:30.037Z,101652
2018-05-06T08:45:58.305Z,101660
2018-05-06T08:48:26.596Z,101655
2018-05-06T08:50:54.969Z,101668
2018-05-06T08:53:24.675Z,101668
2018-05-06T08:55:53.463Z,101668
2018-05-06T08:58:27.497Z,101669
2018-05-06T09:00:55.720Z,101672
2018-05-06T09:03:25.280Z,101664
2018-05-06T09:05:56.749Z,101675
2018-05-06T09:08:25.628Z,101681
2018-05-06T09:10:53.996Z,101673
2018-05-06T09:13:22.944Z,101680
2018-05-06T09:15:51.062Z,101675
2018-05-06T09:18:19.363Z,101666
2018-05-06T09:20:48.256Z,101662
2018-05-06T09:23:16.476Z,101659
2018-05-06T09:25:45.598Z,101656
2018-05-06T09:28:16.239Z,101653
2018-05-06T09:30:44.440Z,101651
2018-05-06T09:33:15.115Z,101642
2018-05-06T09:35:46.031Z,101650
2018-05-06T09:38:17.332Z,101634
2018-05-06T09:40:51.811Z,101632
2018-05-06T09:43:23.095Z,101635
2018-05-06T09:45:51.318Z,101643
2018-05-06T09:48:19.857Z,101636
2018-05-06T09:50:49.259Z,101645
2018-05-06T09:53:28.399Z,101634
2018-05-06T09:55:57.461Z,101625
2018-05-06T09:58:37.945Z,101625
2018-05-06T10:01:06.103Z,101618
2018-05-06T10:03:36.644Z,101626
2018-05-06T10:06:08.661Z,101628
2018-05-06T10:08:38.808Z,101617
2018-05-06T10:11:07.381Z,101609
2018-05-06T10:13:36.496Z,101604
2018-05-06T10:16:04.780Z,101603
2018-05-06T10:18:33.834Z,101598
2018-05-06T10:21:02.758Z,101599
2018-05-06T10:23:30.928Z,101592
2018-05-06T10:25:59.125Z,101589
2018-05-06T10:28:27.320Z,101582
2018-05-06T10:30:55.690Z,101584
2018-05-06T10:33:23.999Z,101576
2018-05-06T10:35:52.448Z,101579
2018-05-06T10:40:56.453Z,101570
2018-05-06T10:43:25.464Z,101568
2018-05-06T10:45:55.592Z,101565
2018-05-06T10:48:27.121Z,101553
2018-05-06T10:50:55.881Z,101558
2018-05-06T10:53:24.973Z,101557
2018-05-06T10:55:53.992Z,101543
2018-05-06T10:58:22.726Z,101549
2018-05-06T11:00:51.939Z,101540
2018-05-06T11:03:21.256Z,101542
2018-05-06T11:05:49.612Z,101556
2018-05-06T11:08:18.535Z,101550
2018-05-06T11:10:47.571Z,101548
2018-05-06T11:13:16.867Z,101546
2018-05-06T11:15:45.157Z,101540
2018-05-06T11:18:16.492Z,101532
2018-05-06T11:20:46.213Z,101534
2018-05-06T11:23:16.928Z,101537
2018-05-06T11:25:46.188Z,101537
2018-05-06T11:28:16.265Z,101529
2018-05-06T11:30:50.995Z,101538
2018-05-06T11:33:20.641Z,101523
2018-05-06T11:35:51.049Z,101527
2018-05-06T11:38:19.939Z,101525
2018-05-06T11:40:49.039Z,101525
2018-05-06T11:43:17.984Z,101523
2018-05-06T11:45:46.268Z,101518
2018-05-06T11:48:15.563Z,101521
2018-05-06T11:50:44.537Z,101519
2018-05-06T11:53:18.580Z,101522
2018-05-06T11:55:47.579Z,101516
2018-05-06T11:58:19.634Z,101521
2018-05-06T12:00:50.347Z,101525
2018-05-06T12:03:21.755Z,101509
2018-05-06T12:05:52.600Z,101515
2018-05-06T12:08:24.243Z,101509
2018-05-06T12:10:52.855Z,101509
2018-05-06T12:13:23.541Z,101506
2018-05-06T12:15:56.229Z,101507
2018-05-06T12:18:27.853Z,101500
2018-05-06T12:20:57.928Z,101494
2018-05-06T12:23:27.967Z,101490
2018-05-06T12:25:57.392Z,101491
2018-05-06T12:28:26.505Z,101482
2018-05-06T12:30:54.825Z,101485
2018-05-06T12:33:24.770Z,101487
2018-05-06T12:35:54.257Z,101474
2018-05-06T12:38:23.025Z,101478
2018-05-06T12:40:51.908Z,101480
2018-05-06T12:43:21.746Z,101479
2018-05-06T12:45:54.078Z,101472
2018-05-06T12:48:23.544Z,101479
2018-05-06T12:50:51.914Z,101470
2018-05-06T12:53:23.501Z,101463
2018-05-06T12:55:54.976Z,101465
2018-05-06T12:58:23.843Z,101462
2018-05-06T13:00:52.916Z,101462
2018-05-06T13:03:21.139Z,101458
2018-05-06T13:05:49.923Z,101455
2018-05-06T13:08:18.014Z,101464
2018-05-06T13:10:47.316Z,101456
2018-05-06T13:13:16.201Z,101453
2018-05-06T13:15:45.277Z,101454
2018-05-06T13:18:13.840Z,101455
2018-05-06T13:20:46.012Z,101451
2018-05-06T13:23:15.224Z,101444
2018-05-06T13:25:43.993Z,101459
2018-05-06T13:28:12.768Z,101450
2018-05-06T13:30:43.304Z,101443
2018-05-06T13:33:12.131Z,101447
2018-05-06T13:35:40.391Z,101442
2018-05-06T13:38:08.692Z,101437
2018-05-06T13:40:38.043Z,101429
2018-05-06T13:43:06.408Z,101436
2018-05-06T13:45:34.925Z,101428
2018-05-06T13:48:04.232Z,101421
2018-05-06T13:50:35.564Z,101419
2018-05-06T13:53:05.388Z,101422
2018-05-06T13:55:34.454Z,101417
2018-05-06T13:58:02.969Z,101415
2018-05-06T14:00:31.729Z,101413
2018-05-06T14:03:00.921Z,101405
2018-05-06T14:05:29.848Z,101403
2018-05-06T14:07:58.251Z,101407
2018-05-06T14:10:26.805Z,101401
2018-05-06T14:12:55.865Z,101393
2018-05-06T14:15:23.969Z,101393
2018-05-06T14:17:53.364Z,101394
2018-05-06T14:20:22.629Z,101390
2018-05-06T14:22:50.838Z,101393
2018-05-06T14:25:19.643Z,101387
2018-05-06T14:27:47.936Z,101286
2018-05-06T14:30:18.013Z,101389
2018-05-06T14:32:47.292Z,101385
2018-05-06T14:35:16.223Z,101394
2018-05-06T14:37:50.269Z,101387
2018-05-06T14:40:25.148Z,101389
2018-05-06T14:42:54.031Z,101386
2018-05-06T14:45:25.371Z,101388
2018-05-06T14:48:12.531Z,101380
2018-05-06T14:50:44.636Z,101384
2018-05-06T14:53:13.761Z,101377
2018-05-06T14:55:42.580Z,101371
2018-05-06T14:58:13.181Z,101369
2018-05-06T15:00:42.943Z,101380
2018-05-06T15:03:12.503Z,101368
2018-05-06T15:05:41.294Z,101375
2018-05-06T15:08:10.087Z,101366
2018-05-06T15:10:38.185Z,101361
2018-05-06T15:13:07.996Z,101362
2018-05-06T15:15:36.195Z,101362
2018-05-06T15:18:06.219Z,101358
2018-05-06T15:20:36.904Z,101360
2018-05-06T15:23:06.156Z,101358
2018-05-06T15:25:35.392Z,101358
2018-05-06T15:28:05.411Z,101348
2018-05-06T15:30:33.772Z,101345
2018-05-06T15:33:02.703Z,101350
2018-05-06T15:35:32.984Z,101355
2018-05-06T15:38:05.464Z,101341
2018-05-06T15:40:34.291Z,101348
2018-05-06T15:43:02.591Z,101342
2018-05-06T15:45:31.444Z,101341
2018-05-06T15:48:01.224Z,101346
2018-05-06T15:50:30.047Z,101343
2018-05-06T15:53:01.622Z,101340
2018-05-06T15:55:34.368Z,101335
2018-05-06T15:58:03.652Z,101334
2018-05-06T16:00:32.460Z,101342
2018-05-06T16:03:21.029Z,101338
2018-05-06T16:05:49.555Z,101347
2018-05-06T16:08:19.304Z,101327
2018-05-06T16:10:49.468Z,101329
2018-05-06T16:13:19.380Z,101328
2018-05-06T16:15:48.417Z,101338
2018-05-06T16:18:19.064Z,101327
2018-05-06T16:20:47.865Z,101327
2018-05-06T16:23:17.825Z,101329
2018-05-06T16:25:47.625Z,101316
2018-05-06T16:28:16.800Z,101316
2018-05-06T16:30:45.182Z,101308
2018-05-06T16:33:14.081Z,101314
2018-05-06T16:35:43.049Z,101311
2018-05-06T16:38:15.425Z,101309
2018-05-06T16:40:48.796Z,101322
2018-05-06T16:43:20.905Z,101314
2018-05-06T16:45:50.297Z,101315
2018-05-06T16:48:19.188Z,101311
2018-05-06T16:50:48.778Z,101314
2018-05-06T16:53:17.357Z,101310
2018-05-06T16:55:46.643Z,101306
2018-05-06T16:58:15.982Z,101308
2018-05-06T17:00:45.704Z,101312
2018-05-06T17:03:14.771Z,101307
2018-05-06T17:05:43.201Z,101311
2018-05-06T17:08:11.949Z,101310
2018-05-06T17:10:40.089Z,101306
2018-05-06T17:13:08.928Z,101309
2018-05-06T17:15:37.832Z,101306
2018-05-06T17:18:06.583Z,101243
2018-05-06T17:20:35.821Z,101310
2018-05-06T17:23:06.409Z,101290
2018-05-06T17:25:34.886Z,101297
2018-05-06T17:28:03.641Z,101301
2018-05-06T17:30:32.018Z,101296
2018-05-06T17:33:02.840Z,101297
2018-05-06T17:35:31.689Z,101295
2018-05-06T17:38:01.092Z,101307
2018-05-06T17:40:30.396Z,101306
2018-05-06T17:42:59.205Z,101310
2018-05-06T17:45:28.167Z,101305
2018-05-06T17:47:57.998Z,101304
2018-05-06T17:50:29.749Z,101301
2018-05-06T17:52:59.141Z,101303
2018-05-06T17:55:28.135Z,101305
2018-05-06T17:57:58.787Z,101306
2018-05-06T18:00:27.046Z,101298
2018-05-06T18:02:56.244Z,101301
2018-05-06T18:05:24.347Z,101305
2018-05-06T18:07:52.466Z,101301
2018-05-06T18:10:21.301Z,101304
2018-05-06T18:12:49.411Z,101303
2018-05-06T18:15:17.484Z,101298
2018-05-06T18:17:46.339Z,101302
2018-05-06T18:20:14.441Z,101300
2018-05-06T18:22:42.547Z,101306
2018-05-06T18:25:10.604Z,101298
2018-05-06T18:27:38.679Z,101307
2018-05-06T18:30:06.792Z,101311
2018-05-06T18:32:34.871Z,101308
2018-05-06T18:35:03.759Z,101308
2018-05-06T18:37:32.935Z,101310
2018-05-06T18:40:00.908Z,101316
2018-05-06T18:42:29.012Z,101305
2018-05-06T19:16:33.424Z,101324
2018-05-06T19:19:01.496Z,101325
2018-05-06T19:21:29.828Z,101327
2018-05-06T19:23:58.718Z,101334
2018-05-06T19:26:26.918Z,101331
2018-05-06T19:28:55.074Z,101328
2018-05-06T19:31:23.929Z,101333
2018-05-06T19:33:52.776Z,101332
2018-05-06T19:36:20.887Z,101346
2018-05-06T19:38:48.985Z,101344
2018-05-06T19:41:17.095Z,101344
2018-05-06T19:43:45.207Z,101349
2018-05-06T19:46:13.691Z,101347
2018-05-06T19:48:41.965Z,101349
2018-05-06T19:51:11.536Z,101343
2018-05-06T19:53:39.628Z,101335
2018-05-06T19:56:08.020Z,101346
2018-05-06T19:58:37.763Z,101344
2018-05-06T20:01:05.876Z,101350
2018-05-06T20:03:33.960Z,101345
2018-05-06T20:06:02.066Z,101356
2018-05-06T20:08:30.159Z,101350
2018-05-06T20:11:02.635Z,101347
2018-05-06T20:13:30.743Z,101346
2018-05-06T20:15:58.852Z,101360
2018-05-06T20:18:26.992Z,101358
2018-05-06T20:20:55.093Z,101370
2018-05-06T20:23:23.160Z,101371
2018-05-06T20:25:51.275Z,101382
2018-05-06T20:28:21.820Z,101364
2018-05-06T20:30:50.992Z,101373
2018-05-06T20:33:20.100Z,101365
2018-05-06T20:35:48.176Z,101373
2018-05-06T20:38:16.279Z,101363
2018-05-06T20:40:44.854Z,101372
2018-05-06T20:43:12.934Z,101369
2018-05-06T20:45:41.016Z,101375
2018-05-06T20:48:09.116Z,101376
2018-05-06T20:50:37.200Z,101380
2018-05-06T20:53:06.068Z,101381
2018-05-06T20:55:34.157Z,101376
2018-05-06T20:58:02.235Z,101377
2018-05-06T21:00:46.616Z,101380
2018-05-06T21:03:18.141Z,101389
2018-05-06T21:05:47.492Z,101386
2018-05-06T21:08:15.589Z,101384
2018-05-06T21:10:43.687Z,101382
2018-05-06T21:13:12.533Z,101397
2018-05-06T21:15:40.634Z,101392
2018-05-06T21:18:08.855Z,101399
2018-05-06T21:20:37.944Z,101395
2018-05-06T21:23:06.019Z,101396
2018-05-06T21:25:35.343Z,101398
2018-05-06T21:28:03.443Z,101405
2018-05-06T21:30:31.544Z,101401
2018-05-06T21:33:03.406Z,101400
2018-05-06T21:35:31.535Z,101384
2018-05-06T21:38:00.435Z,101393
2018-05-06T21:40:28.562Z,101402
2018-05-06T21:42:56.649Z,101392
2018-05-06T21:45:25.580Z,101397
2018-05-06T21:47:53.550Z,101395
2018-05-06T21:50:21.631Z,101391
2018-05-06T21:52:51.908Z,101395
2018-05-06T21:55:20.897Z,101400
2018-05-06T21:57:49.258Z,101404
2018-05-06T22:00:17.330Z,101400
2018-05-06T22:02:45.462Z,101405
2018-05-06T22:05:13.601Z,101401
2018-05-06T22:07:42.469Z,101408
2018-05-06T22:10:11.297Z,101408
2018-05-06T22:12:39.379Z,101411
2018-05-06T22:15:07.476Z,101402
2018-05-06T22:17:35.565Z,101412
2018-05-06T22:20:03.633Z,101401
2018-05-06T22:22:33.549Z,101406
2018-05-06T22:25:03.056Z,101405
2018-05-06T22:27:31.923Z,101407
2018-05-06T22:29:59.999Z,101397
2018-05-06T22:32:28.908Z,101400
2018-05-06T22:34:58.132Z,101406
2018-05-06T22:37:26.232Z,101398
2018-05-06T22:39:54.314Z,101403
2018-05-06T22:42:22.387Z,101396
2018-05-06T22:44:50.473Z,101399
2018-05-06T22:47:18.554Z,101396
2018-05-06T22:49:52.531Z,101402
2018-05-06T22:52:21.517Z,101397
2018-05-06T22:54:49.836Z,101396
2018-05-06T22:57:24.275Z,101394
2018-05-06T22:59:53.188Z,101401
2018-05-06T23:02:27.923Z,101390
2018-05-06T23:05:07.624Z,101398
2018-05-06T23:07:37.183Z,101390
2018-05-06T23:10:10.037Z,101391
2018-05-06T23:12:40.302Z,101389
2018-05-06T23:15:10.569Z,101391
2018-05-06T23:17:39.080Z,101393
2018-05-06T23:20:07.383Z,101394
2018-05-06T23:22:35.488Z,101394
2018-05-06T23:25:07.762Z,101392
2018-05-06T23:30:19.531Z,101384
2018-05-06T23:32:47.840Z,101381
2018-05-06T23:35:23.490Z,101379
2018-05-06T23:37:52.704Z,101380
2018-05-06T23:40:21.220Z,101382
2018-05-06T23:42:52.743Z,101379
2018-05-06T23:45:20.882Z,101378
2018-05-06T23:47:49.197Z,101388
2018-05-06T23:50:17.502Z,101385
2018-05-06T23:52:45.811Z,101382
2018-05-06T23:55:15.280Z,101377
2018-05-06T23:57:44.030Z,101371
